sensor_id;sensor_type;location;lat;lon;timestamp;P1;durP1;ratioP1;P2;durP2;ratioP2
1799;SDS011;919;48.274;12.292;2023-04-25T00:02:24;5.40;;;2.50;;
1799;SDS011;919;48.274;12.292;2023-04-25T00:04:50;2.77;;;2.53;;
1799;SDS011;919;48.274;12.292;2023-04-25T00:07:17;4.53;;;2.87;;
1799;SDS011;919;48.274;12.292;2023-04-25T00:09:45;2.83;;;2.13;;
1799;SDS011;919;48.274;12.292;2023-04-25T00:12:12;2.53;;;2.33;;
1799;SDS011;919;48.274;12.292;2023-04-25T00:14:40;2.60;;;2.40;;
1799;SDS011;919;48.274;12.292;2023-04-25T00:17:07;2.60;;;2.40;;
1799;SDS011;919;48.274;12.292;2023-04-25T00:19:34;3.70;;;3.00;;
1799;SDS011;919;48.274;12.292;2023-04-25T00:22:02;1.97;;;1.77;;
1799;SDS011;919;48.274;12.292;2023-04-25T00:24:30;3.70;;;2.10;;
1799;SDS011;919;48.274;12.292;2023-04-25T00:26:58;3.40;;;2.20;;
1799;SDS011;919;48.274;12.292;2023-04-25T00:29:25;2.30;;;2.20;;
1799;SDS011;919;48.274;12.292;2023-04-25T00:31:52;1.90;;;1.80;;
1799;SDS011;919;48.274;12.292;2023-04-25T00:34:18;2.50;;;2.30;;
1799;SDS011;919;48.274;12.292;2023-04-25T00:36:45;2.83;;;2.60;;
1799;SDS011;919;48.274;12.292;2023-04-25T00:39:12;2.27;;;2.17;;
1799;SDS011;919;48.274;12.292;2023-04-25T00:41:39;2.93;;;2.73;;
1799;SDS011;919;48.274;12.292;2023-04-25T00:44:08;4.00;;;2.30;;
1799;SDS011;919;48.274;12.292;2023-04-25T00:46:36;2.37;;;2.17;;
1799;SDS011;919;48.274;12.292;2023-04-25T00:49:04;2.50;;;2.27;;
1799;SDS011;919;48.274;12.292;2023-04-25T00:51:31;2.13;;;2.00;;
1799;SDS011;919;48.274;12.292;2023-04-25T00:53:59;2.50;;;2.30;;
1799;SDS011;919;48.274;12.292;2023-04-25T00:56:26;2.00;;;1.87;;
1799;SDS011;919;48.274;12.292;2023-04-25T00:58:53;2.63;;;1.60;;
1799;SDS011;919;48.274;12.292;2023-04-25T01:01:22;2.30;;;2.10;;
1799;SDS011;919;48.274;12.292;2023-04-25T01:03:49;2.07;;;1.97;;
1799;SDS011;919;48.274;12.292;2023-04-25T01:06:16;2.83;;;2.60;;
1799;SDS011;919;48.274;12.292;2023-04-25T01:08:43;2.80;;;2.60;;
1799;SDS011;919;48.274;12.292;2023-04-25T01:11:10;2.63;;;2.43;;
1799;SDS011;919;48.274;12.292;2023-04-25T01:13:36;2.40;;;2.17;;
1799;SDS011;919;48.274;12.292;2023-04-25T01:16:03;4.27;;;2.30;;
1799;SDS011;919;48.274;12.292;2023-04-25T01:18:32;2.53;;;2.30;;
1799;SDS011;919;48.274;12.292;2023-04-25T01:21:03;2.43;;;2.27;;
1799;SDS011;919;48.274;12.292;2023-04-25T01:23:33;2.93;;;2.73;;
1799;SDS011;919;48.274;12.292;2023-04-25T01:26:00;2.03;;;1.93;;
1799;SDS011;919;48.274;12.292;2023-04-25T01:28:27;1.90;;;1.80;;
1799;SDS011;919;48.274;12.292;2023-04-25T01:30:55;2.50;;;2.30;;
1799;SDS011;919;48.274;12.292;2023-04-25T01:33:22;2.70;;;2.50;;
1799;SDS011;919;48.274;12.292;2023-04-25T01:35:49;2.97;;;2.23;;
1799;SDS011;919;48.274;12.292;2023-04-25T01:38:17;2.20;;;2.10;;
1799;SDS011;919;48.274;12.292;2023-04-25T01:40:44;2.10;;;2.00;;
1799;SDS011;919;48.274;12.292;2023-04-25T01:43:12;2.77;;;2.57;;
1799;SDS011;919;48.274;12.292;2023-04-25T01:45:39;2.60;;;2.40;;
1799;SDS011;919;48.274;12.292;2023-04-25T01:48:06;2.37;;;2.20;;
1799;SDS011;919;48.274;12.292;2023-04-25T01:50:33;2.87;;;2.57;;
1799;SDS011;919;48.274;12.292;2023-04-25T01:53:00;2.67;;;2.47;;
1799;SDS011;919;48.274;12.292;2023-04-25T01:55:29;3.00;;;2.80;;
1799;SDS011;919;48.274;12.292;2023-04-25T01:57:55;2.77;;;2.57;;
1799;SDS011;919;48.274;12.292;2023-04-25T02:00:23;2.60;;;2.40;;
1799;SDS011;919;48.274;12.292;2023-04-25T02:02:50;4.00;;;2.40;;
1799;SDS011;919;48.274;12.292;2023-04-25T02:05:18;2.43;;;2.23;;
1799;SDS011;919;48.274;12.292;2023-04-25T02:07:45;3.70;;;2.67;;
1799;SDS011;919;48.274;12.292;2023-04-25T02:10:13;2.37;;;2.17;;
1799;SDS011;919;48.274;12.292;2023-04-25T02:12:42;2.10;;;1.93;;
1799;SDS011;919;48.274;12.292;2023-04-25T02:15:09;2.17;;;1.97;;
1799;SDS011;919;48.274;12.292;2023-04-25T02:17:36;2.80;;;2.53;;
1799;SDS011;919;48.274;12.292;2023-04-25T02:20:04;2.60;;;2.40;;
1799;SDS011;919;48.274;12.292;2023-04-25T02:22:31;2.73;;;2.53;;
1799;SDS011;919;48.274;12.292;2023-04-25T02:24:59;2.43;;;2.23;;
1799;SDS011;919;48.274;12.292;2023-04-25T02:27:25;3.83;;;2.60;;
1799;SDS011;919;48.274;12.292;2023-04-25T02:29:53;2.47;;;2.27;;
1799;SDS011;919;48.274;12.292;2023-04-25T02:32:20;3.60;;;3.10;;
1799;SDS011;919;48.274;12.292;2023-04-25T02:34:47;3.30;;;3.00;;
1799;SDS011;919;48.274;12.292;2023-04-25T02:37:14;4.33;;;2.47;;
1799;SDS011;919;48.274;12.292;2023-04-25T02:39:40;4.50;;;2.50;;
1799;SDS011;919;48.274;12.292;2023-04-25T02:42:07;4.23;;;2.87;;
1799;SDS011;919;48.274;12.292;2023-04-25T02:44:34;2.30;;;2.10;;
1799;SDS011;919;48.274;12.292;2023-04-25T02:47:02;4.83;;;3.30;;
1799;SDS011;919;48.274;12.292;2023-04-25T02:49:28;5.73;;;3.83;;
1799;SDS011;919;48.274;12.292;2023-04-25T02:51:55;3.33;;;3.10;;
1799;SDS011;919;48.274;12.292;2023-04-25T02:54:22;4.03;;;3.20;;
1799;SDS011;919;48.274;12.292;2023-04-25T02:56:48;3.70;;;3.40;;
1799;SDS011;919;48.274;12.292;2023-04-25T02:59:15;2.77;;;2.53;;
1799;SDS011;919;48.274;12.292;2023-04-25T03:01:42;3.03;;;2.83;;
1799;SDS011;919;48.274;12.292;2023-04-25T03:04:10;2.37;;;2.17;;
1799;SDS011;919;48.274;12.292;2023-04-25T03:06:37;2.80;;;2.60;;
1799;SDS011;919;48.274;12.292;2023-04-25T03:09:03;2.60;;;2.40;;
1799;SDS011;919;48.274;12.292;2023-04-25T03:11:30;1.80;;;1.70;;
1799;SDS011;919;48.274;12.292;2023-04-25T03:13:57;1.70;;;1.60;;
1799;SDS011;919;48.274;12.292;2023-04-25T03:16:23;2.10;;;1.90;;
1799;SDS011;919;48.274;12.292;2023-04-25T03:18:50;3.03;;;2.57;;
1799;SDS011;919;48.274;12.292;2023-04-25T03:21:18;3.87;;;2.97;;
1799;SDS011;919;48.274;12.292;2023-04-25T03:23:45;3.23;;;2.80;;
1799;SDS011;919;48.274;12.292;2023-04-25T03:26:12;3.17;;;2.97;;
1799;SDS011;919;48.274;12.292;2023-04-25T03:28:39;3.30;;;2.50;;
1799;SDS011;919;48.274;12.292;2023-04-25T03:31:05;2.10;;;2.00;;
1799;SDS011;919;48.274;12.292;2023-04-25T03:33:32;2.23;;;2.07;;
1799;SDS011;919;48.274;12.292;2023-04-25T03:35:59;2.37;;;2.27;;
1799;SDS011;919;48.274;12.292;2023-04-25T03:38:27;2.00;;;1.90;;
1799;SDS011;919;48.274;12.292;2023-04-25T03:40:53;1.93;;;1.83;;
1799;SDS011;919;48.274;12.292;2023-04-25T03:43:21;2.63;;;2.43;;
1799;SDS011;919;48.274;12.292;2023-04-25T03:45:47;1.80;;;1.70;;
1799;SDS011;919;48.274;12.292;2023-04-25T03:48:14;2.20;;;2.10;;
1799;SDS011;919;48.274;12.292;2023-04-25T03:50:41;1.77;;;1.67;;
1799;SDS011;919;48.274;12.292;2023-04-25T03:53:08;1.90;;;1.80;;
1799;SDS011;919;48.274;12.292;2023-04-25T03:55:36;2.10;;;2.00;;
1799;SDS011;919;48.274;12.292;2023-04-25T03:58:02;2.80;;;1.80;;
1799;SDS011;919;48.274;12.292;2023-04-25T04:00:30;2.03;;;1.93;;
1799;SDS011;919;48.274;12.292;2023-04-25T04:02:56;1.93;;;1.83;;
1799;SDS011;919;48.274;12.292;2023-04-25T04:05:23;2.93;;;2.40;;
1799;SDS011;919;48.274;12.292;2023-04-25T04:07:50;6.60;;;2.77;;
1799;SDS011;919;48.274;12.292;2023-04-25T04:10:16;2.33;;;2.20;;
1799;SDS011;919;48.274;12.292;2023-04-25T04:12:45;2.17;;;1.97;;
1799;SDS011;919;48.274;12.292;2023-04-25T04:15:11;2.50;;;2.30;;
1799;SDS011;919;48.274;12.292;2023-04-25T04:17:38;2.93;;;2.73;;
1799;SDS011;919;48.274;12.292;2023-04-25T04:20:05;3.37;;;2.27;;
1799;SDS011;919;48.274;12.292;2023-04-25T04:22:33;3.10;;;2.87;;
1799;SDS011;919;48.274;12.292;2023-04-25T04:25:01;2.57;;;2.13;;
1799;SDS011;919;48.274;12.292;2023-04-25T04:27:29;2.00;;;1.90;;
1799;SDS011;919;48.274;12.292;2023-04-25T04:29:57;1.80;;;1.70;;
1799;SDS011;919;48.274;12.292;2023-04-25T04:32:24;2.00;;;1.90;;
1799;SDS011;919;48.274;12.292;2023-04-25T04:34:53;2.23;;;2.07;;
1799;SDS011;919;48.274;12.292;2023-04-25T04:37:20;2.80;;;2.60;;
1799;SDS011;919;48.274;12.292;2023-04-25T04:39:47;2.50;;;2.30;;
1799;SDS011;919;48.274;12.292;2023-04-25T04:42:15;2.20;;;2.00;;
1799;SDS011;919;48.274;12.292;2023-04-25T04:44:42;2.67;;;2.40;;
1799;SDS011;919;48.274;12.292;2023-04-25T04:47:10;2.67;;;2.40;;
1799;SDS011;919;48.274;12.292;2023-04-25T04:49:39;2.77;;;2.57;;
1799;SDS011;919;48.274;12.292;2023-04-25T04:52:05;2.60;;;2.17;;
1799;SDS011;919;48.274;12.292;2023-04-25T04:54:32;2.87;;;2.33;;
1799;SDS011;919;48.274;12.292;2023-04-25T04:57:00;3.07;;;2.87;;
1799;SDS011;919;48.274;12.292;2023-04-25T04:59:27;2.17;;;2.07;;
1799;SDS011;919;48.274;12.292;2023-04-25T05:01:53;3.20;;;3.00;;
1799;SDS011;919;48.274;12.292;2023-04-25T05:04:21;2.17;;;2.07;;
1799;SDS011;919;48.274;12.292;2023-04-25T05:06:48;2.70;;;2.50;;
1799;SDS011;919;48.274;12.292;2023-04-25T05:09:15;2.53;;;2.33;;
1799;SDS011;919;48.274;12.292;2023-04-25T05:11:41;3.03;;;2.73;;
1799;SDS011;919;48.274;12.292;2023-04-25T05:14:08;3.50;;;3.00;;
1799;SDS011;919;48.274;12.292;2023-04-25T05:16:35;2.90;;;2.60;;
1799;SDS011;919;48.274;12.292;2023-04-25T05:19:01;2.73;;;2.53;;
1799;SDS011;919;48.274;12.292;2023-04-25T05:21:29;4.10;;;2.80;;
1799;SDS011;919;48.274;12.292;2023-04-25T05:23:56;3.17;;;2.97;;
1799;SDS011;919;48.274;12.292;2023-04-25T05:26:23;3.50;;;3.20;;
1799;SDS011;919;48.274;12.292;2023-04-25T05:28:50;2.60;;;2.40;;
1799;SDS011;919;48.274;12.292;2023-04-25T05:31:16;3.17;;;2.87;;
1799;SDS011;919;48.274;12.292;2023-04-25T05:33:43;2.60;;;2.40;;
1799;SDS011;919;48.274;12.292;2023-04-25T05:36:10;3.87;;;2.80;;
1799;SDS011;919;48.274;12.292;2023-04-25T05:38:38;2.33;;;1.93;;
1799;SDS011;919;48.274;12.292;2023-04-25T05:41:05;2.23;;;1.80;;
1799;SDS011;919;48.274;12.292;2023-04-25T05:43:32;1.87;;;1.73;;
1799;SDS011;919;48.274;12.292;2023-04-25T05:45:59;3.40;;;1.93;;
1799;SDS011;919;48.274;12.292;2023-04-25T05:48:25;2.53;;;2.07;;
1799;SDS011;919;48.274;12.292;2023-04-25T05:50:52;3.30;;;1.73;;
1799;SDS011;919;48.274;12.292;2023-04-25T05:53:19;3.37;;;1.83;;
1799;SDS011;919;48.274;12.292;2023-04-25T05:55:48;2.00;;;1.90;;
1799;SDS011;919;48.274;12.292;2023-04-25T05:58:14;1.87;;;1.63;;
1799;SDS011;919;48.274;12.292;2023-04-25T06:00:41;2.10;;;1.90;;
1799;SDS011;919;48.274;12.292;2023-04-25T06:03:08;2.10;;;2.00;;
1799;SDS011;919;48.274;12.292;2023-04-25T06:05:35;1.50;;;1.40;;
1799;SDS011;919;48.274;12.292;2023-04-25T06:08:02;2.37;;;1.63;;
1799;SDS011;919;48.274;12.292;2023-04-25T06:10:29;3.30;;;2.27;;
1799;SDS011;919;48.274;12.292;2023-04-25T06:12:57;2.57;;;2.37;;
1799;SDS011;919;48.274;12.292;2023-04-25T06:15:24;1.83;;;1.73;;
1799;SDS011;919;48.274;12.292;2023-04-25T06:17:50;3.13;;;2.27;;
1799;SDS011;919;48.274;12.292;2023-04-25T06:20:17;2.00;;;1.77;;
1799;SDS011;919;48.274;12.292;2023-04-25T06:22:47;1.97;;;1.87;;
1799;SDS011;919;48.274;12.292;2023-04-25T06:25:14;2.17;;;2.00;;
1799;SDS011;919;48.274;12.292;2023-04-25T06:27:41;1.93;;;1.83;;
1799;SDS011;919;48.274;12.292;2023-04-25T06:30:10;2.40;;;2.20;;
1799;SDS011;919;48.274;12.292;2023-04-25T06:32:37;2.87;;;2.67;;
1799;SDS011;919;48.274;12.292;2023-04-25T06:35:04;2.53;;;2.10;;
1799;SDS011;919;48.274;12.292;2023-04-25T06:37:31;2.40;;;1.90;;
1799;SDS011;919;48.274;12.292;2023-04-25T06:39:58;2.30;;;2.13;;
1799;SDS011;919;48.274;12.292;2023-04-25T06:42:25;2.20;;;2.00;;
1799;SDS011;919;48.274;12.292;2023-04-25T06:44:51;2.87;;;2.67;;
1799;SDS011;919;48.274;12.292;2023-04-25T06:47:19;3.07;;;1.90;;
1799;SDS011;919;48.274;12.292;2023-04-25T06:49:46;2.70;;;2.50;;
1799;SDS011;919;48.274;12.292;2023-04-25T06:52:13;5.53;;;2.67;;
1799;SDS011;919;48.274;12.292;2023-04-25T06:54:39;2.63;;;2.43;;
1799;SDS011;919;48.274;12.292;2023-04-25T06:57:06;2.50;;;2.10;;
1799;SDS011;919;48.274;12.292;2023-04-25T06:59:33;2.80;;;2.60;;
1799;SDS011;919;48.274;12.292;2023-04-25T07:01:59;4.20;;;3.03;;
1799;SDS011;919;48.274;12.292;2023-04-25T07:04:27;3.10;;;2.80;;
1799;SDS011;919;48.274;12.292;2023-04-25T07:06:55;2.57;;;2.37;;
1799;SDS011;919;48.274;12.292;2023-04-25T07:09:22;2.93;;;2.57;;
1799;SDS011;919;48.274;12.292;2023-04-25T07:11:48;6.40;;;2.57;;
1799;SDS011;919;48.274;12.292;2023-04-25T07:14:15;3.87;;;2.80;;
1799;SDS011;919;48.274;12.292;2023-04-25T07:16:42;3.10;;;2.60;;
1799;SDS011;919;48.274;12.292;2023-04-25T07:19:08;4.30;;;2.87;;
1799;SDS011;919;48.274;12.292;2023-04-25T07:21:36;2.37;;;2.17;;
1799;SDS011;919;48.274;12.292;2023-04-25T07:24:03;2.70;;;2.50;;
1799;SDS011;919;48.274;12.292;2023-04-25T07:26:31;2.70;;;2.50;;
1799;SDS011;919;48.274;12.292;2023-04-25T07:28:58;4.07;;;2.50;;
1799;SDS011;919;48.274;12.292;2023-04-25T07:31:25;7.23;;;2.77;;
1799;SDS011;919;48.274;12.292;2023-04-25T07:33:52;2.33;;;2.13;;
1799;SDS011;919;48.274;12.292;2023-04-25T07:36:19;5.40;;;3.53;;
1799;SDS011;919;48.274;12.292;2023-04-25T07:38:48;2.90;;;2.70;;
1799;SDS011;919;48.274;12.292;2023-04-25T07:41:14;4.57;;;2.70;;
1799;SDS011;919;48.274;12.292;2023-04-25T07:43:41;3.03;;;2.83;;
1799;SDS011;919;48.274;12.292;2023-04-25T07:46:08;5.90;;;5.10;;
1799;SDS011;919;48.274;12.292;2023-04-25T07:48:35;3.60;;;2.53;;
1799;SDS011;919;48.274;12.292;2023-04-25T07:51:01;5.00;;;2.47;;
1799;SDS011;919;48.274;12.292;2023-04-25T07:53:30;2.03;;;1.63;;
1799;SDS011;919;48.274;12.292;2023-04-25T07:55:58;3.70;;;2.90;;
1799;SDS011;919;48.274;12.292;2023-04-25T07:58:25;2.30;;;2.20;;
1799;SDS011;919;48.274;12.292;2023-04-25T08:00:52;2.60;;;2.27;;
1799;SDS011;919;48.274;12.292;2023-04-25T08:03:19;2.40;;;2.20;;
1799;SDS011;919;48.274;12.292;2023-04-25T08:05:46;2.00;;;1.90;;
1799;SDS011;919;48.274;12.292;2023-04-25T08:08:12;2.20;;;1.90;;
1799;SDS011;919;48.274;12.292;2023-04-25T08:10:39;3.23;;;2.20;;
1799;SDS011;919;48.274;12.292;2023-04-25T08:13:08;3.27;;;2.97;;
1799;SDS011;919;48.274;12.292;2023-04-25T08:15:35;3.63;;;1.93;;
1799;SDS011;919;48.274;12.292;2023-04-25T08:18:01;2.30;;;2.10;;
1799;SDS011;919;48.274;12.292;2023-04-25T08:20:28;1.73;;;1.63;;
1799;SDS011;919;48.274;12.292;2023-04-25T08:22:55;1.97;;;1.87;;
1799;SDS011;919;48.274;12.292;2023-04-25T08:25:22;4.10;;;2.23;;
1799;SDS011;919;48.274;12.292;2023-04-25T08:27:48;3.07;;;2.50;;
1799;SDS011;919;48.274;12.292;2023-04-25T08:30:16;2.43;;;2.23;;
1799;SDS011;919;48.274;12.292;2023-04-25T08:32:44;2.33;;;2.13;;
1799;SDS011;919;48.274;12.292;2023-04-25T08:35:10;2.00;;;1.90;;
1799;SDS011;919;48.274;12.292;2023-04-25T08:37:37;3.10;;;2.40;;
1799;SDS011;919;48.274;12.292;2023-04-25T08:40:04;2.50;;;2.13;;
1799;SDS011;919;48.274;12.292;2023-04-25T08:42:34;4.00;;;2.53;;
1799;SDS011;919;48.274;12.292;2023-04-25T08:45:03;5.10;;;2.57;;
1799;SDS011;919;48.274;12.292;2023-04-25T08:47:31;3.90;;;2.37;;
1799;SDS011;919;48.274;12.292;2023-04-25T08:50:00;6.00;;;2.53;;
1799;SDS011;919;48.274;12.292;2023-04-25T08:52:32;4.63;;;2.27;;
1799;SDS011;919;48.274;12.292;2023-04-25T08:55:02;2.20;;;2.00;;
1799;SDS011;919;48.274;12.292;2023-04-25T08:57:31;2.13;;;2.00;;
1799;SDS011;919;48.274;12.292;2023-04-25T08:59:58;2.00;;;1.90;;
1799;SDS011;919;48.274;12.292;2023-04-25T09:02:29;2.17;;;1.70;;
1799;SDS011;919;48.274;12.292;2023-04-25T09:04:57;3.00;;;2.27;;
1799;SDS011;919;48.274;12.292;2023-04-25T09:07:24;2.00;;;1.80;;
1799;SDS011;919;48.274;12.292;2023-04-25T09:09:50;4.40;;;2.07;;
1799;SDS011;919;48.274;12.292;2023-04-25T09:12:17;2.60;;;1.83;;
1799;SDS011;919;48.274;12.292;2023-04-25T09:14:53;4.70;;;2.20;;
1799;SDS011;919;48.274;12.292;2023-04-25T09:17:29;3.03;;;2.23;;
1799;SDS011;919;48.274;12.292;2023-04-25T09:19:57;2.30;;;1.97;;
1799;SDS011;919;48.274;12.292;2023-04-25T09:22:35;2.70;;;2.50;;
1799;SDS011;919;48.274;12.292;2023-04-25T09:25:03;2.73;;;2.20;;
1799;SDS011;919;48.274;12.292;2023-04-25T09:27:33;3.60;;;2.47;;
1799;SDS011;919;48.274;12.292;2023-04-25T09:30:00;2.30;;;2.10;;
1799;SDS011;919;48.274;12.292;2023-04-25T09:32:27;3.60;;;2.60;;
1799;SDS011;919;48.274;12.292;2023-04-25T09:34:54;6.20;;;2.77;;
1799;SDS011;919;48.274;12.292;2023-04-25T09:37:24;2.90;;;2.60;;
1799;SDS011;919;48.274;12.292;2023-04-25T09:39:53;2.93;;;2.73;;
1799;SDS011;919;48.274;12.292;2023-04-25T09:42:21;4.13;;;3.70;;
1799;SDS011;919;48.274;12.292;2023-04-25T09:44:49;3.50;;;3.20;;
1799;SDS011;919;48.274;12.292;2023-04-25T09:47:18;4.00;;;3.10;;
1799;SDS011;919;48.274;12.292;2023-04-25T09:49:46;7.07;;;2.10;;
1799;SDS011;919;48.274;12.292;2023-04-25T09:52:15;5.23;;;2.30;;
1799;SDS011;919;48.274;12.292;2023-04-25T09:54:42;2.30;;;2.10;;
1799;SDS011;919;48.274;12.292;2023-04-25T09:57:10;3.43;;;2.40;;
1799;SDS011;919;48.274;12.292;2023-04-25T09:59:39;2.90;;;2.20;;
1799;SDS011;919;48.274;12.292;2023-04-25T10:02:09;2.23;;;2.03;;
1799;SDS011;919;48.274;12.292;2023-04-25T10:04:38;6.07;;;2.77;;
1799;SDS011;919;48.274;12.292;2023-04-25T10:07:05;4.03;;;2.53;;
1799;SDS011;919;48.274;12.292;2023-04-25T10:09:35;3.43;;;2.17;;
1799;SDS011;919;48.274;12.292;2023-04-25T10:12:04;4.10;;;3.13;;
1799;SDS011;919;48.274;12.292;2023-04-25T10:14:31;2.03;;;1.87;;
1799;SDS011;919;48.274;12.292;2023-04-25T10:16:59;1.60;;;1.50;;
1799;SDS011;919;48.274;12.292;2023-04-25T10:19:26;1.33;;;1.23;;
1799;SDS011;919;48.274;12.292;2023-04-25T10:21:55;1.60;;;1.50;;
1799;SDS011;919;48.274;12.292;2023-04-25T10:24:30;1.90;;;1.50;;
1799;SDS011;919;48.274;12.292;2023-04-25T10:26:58;2.60;;;1.77;;
1799;SDS011;919;48.274;12.292;2023-04-25T10:29:26;2.30;;;1.97;;
1799;SDS011;919;48.274;12.292;2023-04-25T10:31:53;1.57;;;1.47;;
1799;SDS011;919;48.274;12.292;2023-04-25T10:34:24;1.83;;;1.73;;
1799;SDS011;919;48.274;12.292;2023-04-25T10:37:03;2.17;;;1.33;;
1799;SDS011;919;48.274;12.292;2023-04-25T10:39:30;1.40;;;1.30;;
1799;SDS011;919;48.274;12.292;2023-04-25T10:42:01;1.23;;;1.20;;
1799;SDS011;919;48.274;12.292;2023-04-25T10:44:29;2.13;;;1.80;;
1799;SDS011;919;48.274;12.292;2023-04-25T10:46:56;2.63;;;1.57;;
1799;SDS011;919;48.274;12.292;2023-04-25T10:49:30;1.83;;;1.73;;
1799;SDS011;919;48.274;12.292;2023-04-25T10:52:10;1.70;;;1.60;;
1799;SDS011;919;48.274;12.292;2023-04-25T10:54:42;2.03;;;1.90;;
1799;SDS011;919;48.274;12.292;2023-04-25T11:00:15;4.00;;;2.33;;
1799;SDS011;919;48.274;12.292;2023-04-25T11:02:44;1.80;;;1.70;;
1799;SDS011;919;48.274;12.292;2023-04-25T11:05:22;1.63;;;1.53;;
1799;SDS011;919;48.274;12.292;2023-04-25T11:07:55;2.07;;;1.73;;
1799;SDS011;919;48.274;12.292;2023-04-25T11:10:25;2.20;;;2.00;;
1799;SDS011;919;48.274;12.292;2023-04-25T11:12:53;2.10;;;1.97;;
1799;SDS011;919;48.274;12.292;2023-04-25T11:15:20;1.90;;;1.80;;
1799;SDS011;919;48.274;12.292;2023-04-25T11:17:47;2.83;;;2.50;;
1799;SDS011;919;48.274;12.292;2023-04-25T11:20:15;2.03;;;1.93;;
1799;SDS011;919;48.274;12.292;2023-04-25T11:22:42;2.50;;;1.73;;
1799;SDS011;919;48.274;12.292;2023-04-25T11:25:11;1.80;;;1.70;;
1799;SDS011;919;48.274;12.292;2023-04-25T11:27:48;1.50;;;1.40;;
1799;SDS011;919;48.274;12.292;2023-04-25T11:30:19;3.03;;;2.43;;
1799;SDS011;919;48.274;12.292;2023-04-25T11:32:46;3.90;;;2.23;;
1799;SDS011;919;48.274;12.292;2023-04-25T11:35:13;4.63;;;2.43;;
1799;SDS011;919;48.274;12.292;2023-04-25T11:37:41;2.23;;;2.03;;
1799;SDS011;919;48.274;12.292;2023-04-25T11:40:09;2.90;;;1.80;;
1799;SDS011;919;48.274;12.292;2023-04-25T11:42:37;2.50;;;1.60;;
1799;SDS011;919;48.274;12.292;2023-04-25T11:45:04;1.70;;;1.60;;
1799;SDS011;919;48.274;12.292;2023-04-25T11:47:34;1.43;;;1.33;;
1799;SDS011;919;48.274;12.292;2023-04-25T11:50:01;1.37;;;1.27;;
1799;SDS011;919;48.274;12.292;2023-04-25T11:52:36;2.70;;;1.80;;
1799;SDS011;919;48.274;12.292;2023-04-25T11:55:04;1.50;;;1.40;;
1799;SDS011;919;48.274;12.292;2023-04-25T11:57:32;2.90;;;1.60;;
1799;SDS011;919;48.274;12.292;2023-04-25T12:00:05;2.17;;;1.80;;
1799;SDS011;919;48.274;12.292;2023-04-25T12:02:35;3.97;;;2.50;;
1799;SDS011;919;48.274;12.292;2023-04-25T12:05:02;2.70;;;2.50;;
1799;SDS011;919;48.274;12.292;2023-04-25T12:07:33;3.00;;;2.33;;
1799;SDS011;919;48.274;12.292;2023-04-25T12:10:03;3.33;;;2.60;;
1799;SDS011;919;48.274;12.292;2023-04-25T12:12:32;2.97;;;2.67;;
1799;SDS011;919;48.274;12.292;2023-04-25T12:15:07;2.80;;;2.60;;
1799;SDS011;919;48.274;12.292;2023-04-25T12:17:36;5.70;;;4.03;;
1799;SDS011;919;48.274;12.292;2023-04-25T12:20:05;3.60;;;3.13;;
1799;SDS011;919;48.274;12.292;2023-04-25T12:22:34;3.53;;;1.77;;
1799;SDS011;919;48.274;12.292;2023-04-25T12:25:01;1.93;;;1.73;;
1799;SDS011;919;48.274;12.292;2023-04-25T12:27:30;3.87;;;1.70;;
1799;SDS011;919;48.274;12.292;2023-04-25T12:29:57;2.23;;;2.03;;
1799;SDS011;919;48.274;12.292;2023-04-25T12:32:24;3.80;;;2.33;;
1799;SDS011;919;48.274;12.292;2023-04-25T12:34:52;2.43;;;2.20;;
1799;SDS011;919;48.274;12.292;2023-04-25T12:37:19;2.40;;;2.20;;
1799;SDS011;919;48.274;12.292;2023-04-25T12:39:46;1.80;;;1.70;;
1799;SDS011;919;48.274;12.292;2023-04-25T12:42:13;2.00;;;1.90;;
1799;SDS011;919;48.274;12.292;2023-04-25T12:44:39;2.37;;;2.17;;
1799;SDS011;919;48.274;12.292;2023-04-25T12:47:06;1.60;;;1.50;;
1799;SDS011;919;48.274;12.292;2023-04-25T12:49:33;1.77;;;1.40;;
1799;SDS011;919;48.274;12.292;2023-04-25T12:52:01;2.13;;;1.80;;
1799;SDS011;919;48.274;12.292;2023-04-25T12:54:28;2.57;;;1.73;;
1799;SDS011;919;48.274;12.292;2023-04-25T12:56:56;1.70;;;1.60;;
1799;SDS011;919;48.274;12.292;2023-04-25T12:59:23;2.80;;;1.90;;
1799;SDS011;919;48.274;12.292;2023-04-25T13:01:49;3.30;;;2.03;;
1799;SDS011;919;48.274;12.292;2023-04-25T13:04:16;2.27;;;2.07;;
1799;SDS011;919;48.274;12.292;2023-04-25T13:06:45;1.63;;;1.53;;
1799;SDS011;919;48.274;12.292;2023-04-25T13:09:13;1.73;;;1.63;;
1799;SDS011;919;48.274;12.292;2023-04-25T13:11:40;3.90;;;1.53;;
1799;SDS011;919;48.274;12.292;2023-04-25T13:14:07;1.60;;;1.50;;
1799;SDS011;919;48.274;12.292;2023-04-25T13:16:33;1.90;;;1.57;;
1799;SDS011;919;48.274;12.292;2023-04-25T13:19:00;2.17;;;1.97;;
1799;SDS011;919;48.274;12.292;2023-04-25T13:21:29;1.60;;;1.37;;
1799;SDS011;919;48.274;12.292;2023-04-25T13:23:57;2.53;;;1.67;;
1799;SDS011;919;48.274;12.292;2023-04-25T13:26:25;1.60;;;1.50;;
1799;SDS011;919;48.274;12.292;2023-04-25T13:28:52;3.47;;;2.40;;
1799;SDS011;919;48.274;12.292;2023-04-25T13:31:18;2.30;;;2.10;;
1799;SDS011;919;48.274;12.292;2023-04-25T13:33:45;3.43;;;2.00;;
1799;SDS011;919;48.274;12.292;2023-04-25T13:36:12;1.60;;;1.50;;
1799;SDS011;919;48.274;12.292;2023-04-25T13:38:39;4.73;;;1.57;;
1799;SDS011;919;48.274;12.292;2023-04-25T13:41:08;1.47;;;1.10;;
1799;SDS011;919;48.274;12.292;2023-04-25T13:43:37;1.20;;;1.20;;
1799;SDS011;919;48.274;12.292;2023-04-25T13:46:04;1.30;;;1.20;;
1799;SDS011;919;48.274;12.292;2023-04-25T13:48:31;1.97;;;1.67;;
1799;SDS011;919;48.274;12.292;2023-04-25T13:50:57;1.53;;;1.30;;
1799;SDS011;919;48.274;12.292;2023-04-25T13:53:24;1.20;;;1.10;;
1799;SDS011;919;48.274;12.292;2023-04-25T13:55:51;1.27;;;1.00;;
1799;SDS011;919;48.274;12.292;2023-04-25T13:58:18;1.60;;;1.50;;
1799;SDS011;919;48.274;12.292;2023-04-25T14:00:47;1.33;;;1.23;;
1799;SDS011;919;48.274;12.292;2023-04-25T14:03:13;2.97;;;1.73;;
1799;SDS011;919;48.274;12.292;2023-04-25T14:05:40;1.43;;;1.33;;
1799;SDS011;919;48.274;12.292;2023-04-25T14:08:07;1.70;;;1.60;;
1799;SDS011;919;48.274;12.292;2023-04-25T14:10:35;2.60;;;1.50;;
1799;SDS011;919;48.274;12.292;2023-04-25T14:13:02;1.97;;;1.53;;
1799;SDS011;919;48.274;12.292;2023-04-25T14:15:30;1.73;;;1.63;;
1799;SDS011;919;48.274;12.292;2023-04-25T14:17:59;1.57;;;1.47;;
1799;SDS011;919;48.274;12.292;2023-04-25T14:20:27;1.80;;;1.60;;
1799;SDS011;919;48.274;12.292;2023-04-25T14:22:54;1.53;;;1.43;;
1799;SDS011;919;48.274;12.292;2023-04-25T14:25:22;1.27;;;1.17;;
1799;SDS011;919;48.274;12.292;2023-04-25T14:27:49;1.43;;;1.20;;
1799;SDS011;919;48.274;12.292;2023-04-25T14:30:16;3.10;;;1.70;;
1799;SDS011;919;48.274;12.292;2023-04-25T14:32:44;1.57;;;1.47;;
1799;SDS011;919;48.274;12.292;2023-04-25T14:35:12;1.40;;;1.30;;
1799;SDS011;919;48.274;12.292;2023-04-25T14:37:40;1.80;;;1.70;;
1799;SDS011;919;48.274;12.292;2023-04-25T14:40:07;1.80;;;1.70;;
1799;SDS011;919;48.274;12.292;2023-04-25T14:42:35;1.60;;;1.50;;
1799;SDS011;919;48.274;12.292;2023-04-25T14:45:02;2.00;;;1.80;;
1799;SDS011;919;48.274;12.292;2023-04-25T14:47:29;1.87;;;1.70;;
1799;SDS011;919;48.274;12.292;2023-04-25T14:49:56;2.00;;;1.80;;
1799;SDS011;919;48.274;12.292;2023-04-25T14:52:25;1.80;;;1.60;;
1799;SDS011;919;48.274;12.292;2023-04-25T14:54:52;1.40;;;1.30;;
1799;SDS011;919;48.274;12.292;2023-04-25T14:57:19;1.50;;;1.40;;
1799;SDS011;919;48.274;12.292;2023-04-25T14:59:45;1.53;;;1.43;;
1799;SDS011;919;48.274;12.292;2023-04-25T15:02:12;1.03;;;1.03;;
1799;SDS011;919;48.274;12.292;2023-04-25T15:04:39;1.27;;;1.17;;
1799;SDS011;919;48.274;12.292;2023-04-25T15:07:05;1.33;;;1.23;;
1799;SDS011;919;48.274;12.292;2023-04-25T15:09:33;1.40;;;1.30;;
1799;SDS011;919;48.274;12.292;2023-04-25T15:12:00;1.80;;;1.10;;
1799;SDS011;919;48.274;12.292;2023-04-25T15:14:28;1.40;;;1.30;;
1799;SDS011;919;48.274;12.292;2023-04-25T15:16:55;1.30;;;1.20;;
1799;SDS011;919;48.274;12.292;2023-04-25T15:19:22;0.97;;;0.97;;
1799;SDS011;919;48.274;12.292;2023-04-25T15:21:49;0.93;;;0.90;;